sensor_id;sensor_type;location;lat;lon;timestamp;temperature;humidity
16505;HTU21D;8365;51.030;4.696;2022-11-02T00:00:50;14.94;108.40
16505;HTU21D;8365;51.030;4.696;2022-11-02T00:03:21;14.92;108.84
16505;HTU21D;8365;51.030;4.696;2022-11-02T00:05:51;14.85;108.04
16505;HTU21D;8365;51.030;4.696;2022-11-02T00:08:24;14.77;107.84
16505;HTU21D;8365;51.030;4.696;2022-11-02T00:10:57;14.66;108.30
16505;HTU21D;8365;51.030;4.696;2022-11-02T00:13:27;14.71;107.46
16505;HTU21D;8365;51.030;4.696;2022-11-02T00:16:06;14.55;107.35
16505;HTU21D;8365;51.030;4.696;2022-11-02T00:18:38;14.55;106.00
16505;HTU21D;8365;51.030;4.696;2022-11-02T00:21:09;14.52;105.55
16505;HTU21D;8365;51.030;4.696;2022-11-02T00:23:40;14.54;104.08
16505;HTU21D;8365;51.030;4.696;2022-11-02T00:26:11;14.44;105.82
16505;HTU21D;8365;51.030;4.696;2022-11-02T00:28:44;14.50;104.41
16505;HTU21D;8365;51.030;4.696;2022-11-02T00:31:15;14.40;104.23
16505;HTU21D;8365;51.030;4.696;2022-11-02T00:33:45;14.38;103.98
16505;HTU21D;8365;51.030;4.696;2022-11-02T00:36:15;14.34;104.46
16505;HTU21D;8365;51.030;4.696;2022-11-02T00:38:46;14.28;105.20
16505;HTU21D;8365;51.030;4.696;2022-11-02T00:41:18;14.23;106.41
16505;HTU21D;8365;51.030;4.696;2022-11-02T00:43:48;14.22;106.35
16505;HTU21D;8365;51.030;4.696;2022-11-02T00:46:19;14.26;106.31
16505;HTU21D;8365;51.030;4.696;2022-11-02T00:48:50;14.23;106.48
16505;HTU21D;8365;51.030;4.696;2022-11-02T00:51:20;14.19;107.58
16505;HTU21D;8365;51.030;4.696;2022-11-02T00:53:50;14.15;107.15
16505;HTU21D;8365;51.030;4.696;2022-11-02T00:56:21;14.20;108.29
16505;HTU21D;8365;51.030;4.696;2022-11-02T00:58:51;14.27;109.35
16505;HTU21D;8365;51.030;4.696;2022-11-02T01:01:22;14.13;109.54
16505;HTU21D;8365;51.030;4.696;2022-11-02T01:03:55;14.18;110.18
16505;HTU21D;8365;51.030;4.696;2022-11-02T01:06:25;14.14;111.90
16505;HTU21D;8365;51.030;4.696;2022-11-02T01:08:56;14.15;112.43
16505;HTU21D;8365;51.030;4.696;2022-11-02T01:11:26;14.19;111.65
16505;HTU21D;8365;51.030;4.696;2022-11-02T01:13:57;14.11;112.90
16505;HTU21D;8365;51.030;4.696;2022-11-02T01:16:27;14.08;112.42
16505;HTU21D;8365;51.030;4.696;2022-11-02T01:18:58;14.09;111.92
16505;HTU21D;8365;51.030;4.696;2022-11-02T01:21:28;14.08;112.03
16505;HTU21D;8365;51.030;4.696;2022-11-02T01:23:59;13.98;112.24
16505;HTU21D;8365;51.030;4.696;2022-11-02T01:26:29;13.98;112.24
16505;HTU21D;8365;51.030;4.696;2022-11-02T01:29:00;13.94;111.03
16505;HTU21D;8365;51.030;4.696;2022-11-02T01:31:32;13.99;110.94
16505;HTU21D;8365;51.030;4.696;2022-11-02T01:34:04;13.94;110.23
16505;HTU21D;8365;51.030;4.696;2022-11-02T01:36:35;13.89;109.20
16505;HTU21D;8365;51.030;4.696;2022-11-02T01:39:05;13.91;109.67
16505;HTU21D;8365;51.030;4.696;2022-11-02T01:41:39;13.86;109.10
16505;HTU21D;8365;51.030;4.696;2022-11-02T01:44:30;13.91;108.54
16505;HTU21D;8365;51.030;4.696;2022-11-02T01:47:06;13.82;108.40
16505;HTU21D;8365;51.030;4.696;2022-11-02T01:49:40;13.96;107.11
16505;HTU21D;8365;51.030;4.696;2022-11-02T01:52:22;13.96;107.24
16505;HTU21D;8365;51.030;4.696;2022-11-02T01:55:02;14.01;106.82
16505;HTU21D;8365;51.030;4.696;2022-11-02T01:57:34;13.99;106.35
16505;HTU21D;8365;51.030;4.696;2022-11-02T02:00:09;13.92;106.30
16505;HTU21D;8365;51.030;4.696;2022-11-02T02:03:09;13.94;104.95
16505;HTU21D;8365;51.030;4.696;2022-11-02T02:05:44;13.96;104.71
16505;HTU21D;8365;51.030;4.696;2022-11-02T02:08:19;14.00;105.22
16505;HTU21D;8365;51.030;4.696;2022-11-02T02:10:55;13.94;105.59
16505;HTU21D;8365;51.030;4.696;2022-11-02T02:13:28;13.91;105.89
16505;HTU21D;8365;51.030;4.696;2022-11-02T02:16:15;13.91;105.02
16505;HTU21D;8365;51.030;4.696;2022-11-02T02:18:55;13.91;105.11
16505;HTU21D;8365;51.030;4.696;2022-11-02T02:27:52;13.91;105.37
16505;HTU21D;8365;51.030;4.696;2022-11-02T02:30:24;13.94;105.27
16505;HTU21D;8365;51.030;4.696;2022-11-02T02:33:42;13.91;105.72
16505;HTU21D;8365;51.030;4.696;2022-11-02T02:39:34;13.78;107.48
16505;HTU21D;8365;51.030;4.696;2022-11-02T02:47:46;13.64;106.61
16505;HTU21D;8365;51.030;4.696;2022-11-02T02:50:20;13.64;108.51
16505;HTU21D;8365;51.030;4.696;2022-11-02T02:52:52;13.64;108.42
16505;HTU21D;8365;51.030;4.696;2022-11-02T02:55:28;13.64;109.01
16505;HTU21D;8365;51.030;4.696;2022-11-02T02:58:01;13.59;108.53
16505;HTU21D;8365;51.030;4.696;2022-11-02T03:00:33;13.61;108.02
16505;HTU21D;8365;51.030;4.696;2022-11-02T03:03:11;13.61;109.10
16505;HTU21D;8365;51.030;4.696;2022-11-02T03:08:36;13.46;109.69
16505;HTU21D;8365;51.030;4.696;2022-11-02T03:11:18;13.54;107.79
16505;HTU21D;8365;51.030;4.696;2022-11-02T03:21:58;13.61;107.56
16505;HTU21D;8365;51.030;4.696;2022-11-02T03:30:23;13.52;108.51
16505;HTU21D;8365;51.030;4.696;2022-11-02T03:33:06;13.46;109.17
16505;HTU21D;8365;51.030;4.696;2022-11-02T03:35:51;13.45;107.91
16505;HTU21D;8365;51.030;4.696;2022-11-02T03:38:48;13.40;108.78
16505;HTU21D;8365;51.030;4.696;2022-11-02T03:41:23;13.33;110.07
16505;HTU21D;8365;51.030;4.696;2022-11-02T03:44:01;13.35;109.14
16505;HTU21D;8365;51.030;4.696;2022-11-02T03:46:35;13.37;108.95
16505;HTU21D;8365;51.030;4.696;2022-11-02T03:49:10;13.35;109.27
16505;HTU21D;8365;51.030;4.696;2022-11-02T03:51:43;13.38;110.00
16505;HTU21D;8365;51.030;4.696;2022-11-02T03:56:58;13.38;109.62
16505;HTU21D;8365;51.030;4.696;2022-11-02T03:59:30;13.25;110.77
16505;HTU21D;8365;51.030;4.696;2022-11-02T04:02:01;13.17;110.62
16505;HTU21D;8365;51.030;4.696;2022-11-02T04:04:32;13.20;110.35
16505;HTU21D;8365;51.030;4.696;2022-11-02T04:07:02;13.17;110.37
16505;HTU21D;8365;51.030;4.696;2022-11-02T04:09:33;13.18;109.68
16505;HTU21D;8365;51.030;4.696;2022-11-02T04:12:03;13.17;110.13
16505;HTU21D;8365;51.030;4.696;2022-11-02T04:14:52;13.06;110.09
16505;HTU21D;8365;51.030;4.696;2022-11-02T04:17:23;13.12;111.11
16505;HTU21D;8365;51.030;4.696;2022-11-02T04:20:12;13.08;110.78
16505;HTU21D;8365;51.030;4.696;2022-11-02T04:22:43;13.11;110.45
16505;HTU21D;8365;51.030;4.696;2022-11-02T04:25:32;13.03;110.54
16505;HTU21D;8365;51.030;4.696;2022-11-02T04:28:07;13.11;111.57
16505;HTU21D;8365;51.030;4.696;2022-11-02T04:30:37;13.04;111.65
16505;HTU21D;8365;51.030;4.696;2022-11-02T04:33:08;12.97;111.55
16505;HTU21D;8365;51.030;4.696;2022-11-02T04:36:01;12.94;111.92
16505;HTU21D;8365;51.030;4.696;2022-11-02T04:38:32;12.86;112.45
16505;HTU21D;8365;51.030;4.696;2022-11-02T04:41:13;12.78;113.47
16505;HTU21D;8365;51.030;4.696;2022-11-02T04:44:03;12.76;113.50
16505;HTU21D;8365;51.030;4.696;2022-11-02T04:46:35;12.81;113.13
16505;HTU21D;8365;51.030;4.696;2022-11-02T04:49:06;12.71;113.93
16505;HTU21D;8365;51.030;4.696;2022-11-02T04:51:37;12.75;113.03
16505;HTU21D;8365;51.030;4.696;2022-11-02T04:54:12;12.71;113.63
16505;HTU21D;8365;51.030;4.696;2022-11-02T04:56:42;12.70;113.48
16505;HTU21D;8365;51.030;4.696;2022-11-02T04:59:15;12.71;114.22
16505;HTU21D;8365;51.030;4.696;2022-11-02T05:01:45;12.62;113.83
16505;HTU21D;8365;51.030;4.696;2022-11-02T05:04:16;12.73;112.77
16505;HTU21D;8365;51.030;4.696;2022-11-02T05:06:46;12.61;114.65
16505;HTU21D;8365;51.030;4.696;2022-11-02T05:09:16;12.55;115.16
16505;HTU21D;8365;51.030;4.696;2022-11-02T05:11:47;12.60;114.03
16505;HTU21D;8365;51.030;4.696;2022-11-02T05:14:17;12.50;114.69
16505;HTU21D;8365;51.030;4.696;2022-11-02T05:16:48;12.55;113.94
16505;HTU21D;8365;51.030;4.696;2022-11-02T05:19:18;12.55;113.77
16505;HTU21D;8365;51.030;4.696;2022-11-02T05:21:49;12.53;113.81
16505;HTU21D;8365;51.030;4.696;2022-11-02T05:24:19;12.51;114.75
16505;HTU21D;8365;51.030;4.696;2022-11-02T05:26:50;12.47;114.86
16505;HTU21D;8365;51.030;4.696;2022-11-02T05:29:20;12.43;114.56
16505;HTU21D;8365;51.030;4.696;2022-11-02T05:31:51;12.43;114.75
16505;HTU21D;8365;51.030;4.696;2022-11-02T05:34:22;12.32;115.20
16505;HTU21D;8365;51.030;4.696;2022-11-02T05:36:52;12.28;117.53
16505;HTU21D;8365;51.030;4.696;2022-11-02T05:39:23;12.28;116.55
16505;HTU21D;8365;51.030;4.696;2022-11-02T07:32:19;12.45;118.99
16505;HTU21D;8365;51.030;4.696;2022-11-02T07:34:51;12.41;118.99
16505;HTU21D;8365;51.030;4.696;2022-11-02T07:37:22;12.59;118.99
16505;HTU21D;8365;51.030;4.696;2022-11-02T07:39:52;12.59;118.99
16505;HTU21D;8365;51.030;4.696;2022-11-02T07:42:22;12.46;118.99
16505;HTU21D;8365;51.030;4.696;2022-11-02T07:44:53;12.45;118.99
16505;HTU21D;8365;51.030;4.696;2022-11-02T07:47:24;12.35;118.99
16505;HTU21D;8365;51.030;4.696;2022-11-02T07:49:55;12.27;118.99
16505;HTU21D;8365;51.030;4.696;2022-11-02T07:52:28;12.26;118.99
16505;HTU21D;8365;51.030;4.696;2022-11-02T07:55:00;12.26;118.99
16505;HTU21D;8365;51.030;4.696;2022-11-02T07:57:31;12.12;118.99
16505;HTU21D;8365;51.030;4.696;2022-11-02T08:00:02;12.21;118.99
16505;HTU21D;8365;51.030;4.696;2022-11-02T08:02:32;12.30;118.99
16505;HTU21D;8365;51.030;4.696;2022-11-02T08:05:03;12.21;118.99
16505;HTU21D;8365;51.030;4.696;2022-11-02T08:07:34;12.28;118.99
16505;HTU21D;8365;51.030;4.696;2022-11-02T08:10:04;12.28;118.99
16505;HTU21D;8365;51.030;4.696;2022-11-02T08:12:35;12.25;118.99
16505;HTU21D;8365;51.030;4.696;2022-11-02T08:15:06;12.35;118.99
16505;HTU21D;8365;51.030;4.696;2022-11-02T08:17:36;12.30;118.99
16505;HTU21D;8365;51.030;4.696;2022-11-02T08:20:07;12.44;118.99
16505;HTU21D;8365;51.030;4.696;2022-11-02T08:22:39;12.36;118.99
16505;HTU21D;8365;51.030;4.696;2022-11-02T08:25:09;12.40;118.99
16505;HTU21D;8365;51.030;4.696;2022-11-02T08:27:40;12.52;118.99
16505;HTU21D;8365;51.030;4.696;2022-11-02T08:30:11;12.58;118.99
16505;HTU21D;8365;51.030;4.696;2022-11-02T08:32:42;12.63;118.99
16505;HTU21D;8365;51.030;4.696;2022-11-02T08:35:12;12.70;118.99
16505;HTU21D;8365;51.030;4.696;2022-11-02T08:37:43;12.75;118.99
16505;HTU21D;8365;51.030;4.696;2022-11-02T08:40:13;12.73;118.39
16505;HTU21D;8365;51.030;4.696;2022-11-02T08:42:44;12.87;118.99
16505;HTU21D;8365;51.030;4.696;2022-11-02T08:45:14;12.91;118.99
16505;HTU21D;8365;51.030;4.696;2022-11-02T08:47:44;13.01;118.99
16505;HTU21D;8365;51.030;4.696;2022-11-02T08:50:18;12.97;117.86
16505;HTU21D;8365;51.030;4.696;2022-11-02T08:52:48;13.08;117.34
16505;HTU21D;8365;51.030;4.696;2022-11-02T08:55:19;13.02;118.05
16505;HTU21D;8365;51.030;4.696;2022-11-02T08:57:53;13.06;116.66
16505;HTU21D;8365;51.030;4.696;2022-11-02T09:00:29;13.02;118.95
16505;HTU21D;8365;51.030;4.696;2022-11-02T09:03:17;13.00;118.95
16505;HTU21D;8365;51.030;4.696;2022-11-02T09:05:49;13.04;117.36
16505;HTU21D;8365;51.030;4.696;2022-11-02T09:08:19;13.16;117.72
16505;HTU21D;8365;51.030;4.696;2022-11-02T09:10:51;13.05;116.69
16505;HTU21D;8365;51.030;4.696;2022-11-02T09:13:21;13.10;116.98
16505;HTU21D;8365;51.030;4.696;2022-11-02T09:15:56;13.15;116.51
16505;HTU21D;8365;51.030;4.696;2022-11-02T09:18:27;13.10;117.58
16505;HTU21D;8365;51.030;4.696;2022-11-02T09:21:00;13.08;116.75
16505;HTU21D;8365;51.030;4.696;2022-11-02T09:23:31;13.15;116.41
16505;HTU21D;8365;51.030;4.696;2022-11-02T09:26:02;13.31;116.22
16505;HTU21D;8365;51.030;4.696;2022-11-02T09:28:32;13.49;115.38
16505;HTU21D;8365;51.030;4.696;2022-11-02T09:31:03;13.49;113.83
16505;HTU21D;8365;51.030;4.696;2022-11-02T09:33:33;13.47;114.95
16505;HTU21D;8365;51.030;4.696;2022-11-02T09:36:05;13.46;113.09
16505;HTU21D;8365;51.030;4.696;2022-11-02T09:38:38;13.49;114.38
16505;HTU21D;8365;51.030;4.696;2022-11-02T09:41:46;13.62;113.26
16505;HTU21D;8365;51.030;4.696;2022-11-02T09:44:44;13.53;112.55
16505;HTU21D;8365;51.030;4.696;2022-11-02T09:47:18;13.74;113.12
16505;HTU21D;8365;51.030;4.696;2022-11-02T09:49:49;13.77;112.17
16505;HTU21D;8365;51.030;4.696;2022-11-02T09:52:34;13.64;112.75
16505;HTU21D;8365;51.030;4.696;2022-11-02T09:55:11;13.74;111.68
16505;HTU21D;8365;51.030;4.696;2022-11-02T09:57:47;13.75;111.73
16505;HTU21D;8365;51.030;4.696;2022-11-02T10:00:20;13.82;111.96
16505;HTU21D;8365;51.030;4.696;2022-11-02T10:03:16;13.81;111.29
16505;HTU21D;8365;51.030;4.696;2022-11-02T10:05:57;13.84;111.37
16505;HTU21D;8365;51.030;4.696;2022-11-02T10:11:46;14.21;110.18
16505;HTU21D;8365;51.030;4.696;2022-11-02T10:14:22;14.36;110.88
16505;HTU21D;8365;51.030;4.696;2022-11-02T10:19:40;14.55;107.24
16505;HTU21D;8365;51.030;4.696;2022-11-02T10:22:14;14.81;105.76
16505;HTU21D;8365;51.030;4.696;2022-11-02T10:24:45;15.06;106.18
16505;HTU21D;8365;51.030;4.696;2022-11-02T10:27:25;15.27;102.57
16505;HTU21D;8365;51.030;4.696;2022-11-02T10:30:06;15.24;104.15
16505;HTU21D;8365;51.030;4.696;2022-11-02T10:32:38;15.22;103.22
16505;HTU21D;8365;51.030;4.696;2022-11-02T10:47:35;17.55;87.21
16505;HTU21D;8365;51.030;4.696;2022-11-02T10:52:53;18.66;84.38
16505;HTU21D;8365;51.030;4.696;2022-11-02T10:55:42;18.86;80.88
16505;HTU21D;8365;51.030;4.696;2022-11-02T10:58:18;19.31;79.67
16505;HTU21D;8365;51.030;4.696;2022-11-02T11:00:49;18.72;80.26
16505;HTU21D;8365;51.030;4.696;2022-11-02T11:03:21;18.53;79.38
16505;HTU21D;8365;51.030;4.696;2022-11-02T11:05:56;18.70;80.62
16505;HTU21D;8365;51.030;4.696;2022-11-02T11:08:39;18.50;78.30
16505;HTU21D;8365;51.030;4.696;2022-11-02T11:16:45;18.05;80.62
16505;HTU21D;8365;51.030;4.696;2022-11-02T11:21:53;17.21;86.78
16505;HTU21D;8365;51.030;4.696;2022-11-02T11:24:33;17.16;86.78
16505;HTU21D;8365;51.030;4.696;2022-11-02T11:30:01;17.72;80.93
16505;HTU21D;8365;51.030;4.696;2022-11-02T11:32:31;18.48;80.52
16505;HTU21D;8365;51.030;4.696;2022-11-02T11:35:06;18.14;80.47
16505;HTU21D;8365;51.030;4.696;2022-11-02T11:37:53;18.59;77.00
16505;HTU21D;8365;51.030;4.696;2022-11-02T11:40:29;18.14;79.83
16505;HTU21D;8365;51.030;4.696;2022-11-02T11:43:03;18.11;79.41
16505;HTU21D;8365;51.030;4.696;2022-11-02T11:45:34;18.99;75.35
16505;HTU21D;8365;51.030;4.696;2022-11-02T11:51:32;19.46;73.48
16505;HTU21D;8365;51.030;4.696;2022-11-02T11:54:26;19.90;69.03
16505;HTU21D;8365;51.030;4.696;2022-11-02T11:57:24;20.02;69.33
16505;HTU21D;8365;51.030;4.696;2022-11-02T12:00:16;20.68;66.43
16505;HTU21D;8365;51.030;4.696;2022-11-02T12:03:01;19.61;70.36
16505;HTU21D;8365;51.030;4.696;2022-11-02T12:09:15;20.51;66.42
16505;HTU21D;8365;51.030;4.696;2022-11-02T12:23:40;19.72;69.07
16505;HTU21D;8365;51.030;4.696;2022-11-02T12:26:17;19.50;65.22
16505;HTU21D;8365;51.030;4.696;2022-11-02T12:32:01;19.28;66.35
16505;HTU21D;8365;51.030;4.696;2022-11-02T12:45:55;20.79;58.08
16505;HTU21D;8365;51.030;4.696;2022-11-02T12:48:37;21.11;57.85
16505;HTU21D;8365;51.030;4.696;2022-11-02T12:51:12;21.50;56.64
16505;HTU21D;8365;51.030;4.696;2022-11-02T12:57:09;19.95;56.95
16505;HTU21D;8365;51.030;4.696;2022-11-02T12:59:27;19.52;61.16
16505;HTU21D;8365;51.030;4.696;2022-11-02T13:02:08;19.02;61.98
16505;HTU21D;8365;51.030;4.696;2022-11-02T13:05:07;19.40;61.58
16505;HTU21D;8365;51.030;4.696;2022-11-02T13:07:45;19.18;61.44
16505;HTU21D;8365;51.030;4.696;2022-11-02T13:10:21;19.37;62.58
16505;HTU21D;8365;51.030;4.696;2022-11-02T13:12:57;20.25;57.98
16505;HTU21D;8365;51.030;4.696;2022-11-02T13:15:31;20.54;55.03
16505;HTU21D;8365;51.030;4.696;2022-11-02T13:18:20;20.59;56.69
16505;HTU21D;8365;51.030;4.696;2022-11-02T13:20:56;20.87;55.49
16505;HTU21D;8365;51.030;4.696;2022-11-02T13:26:26;21.34;52.96
16505;HTU21D;8365;51.030;4.696;2022-11-02T13:29:01;20.05;54.94
16505;HTU21D;8365;51.030;4.696;2022-11-02T13:31:36;20.00;57.98
16505;HTU21D;8365;51.030;4.696;2022-11-02T13:34:38;20.30;54.78
16505;HTU21D;8365;51.030;4.696;2022-11-02T13:37:13;19.95;54.35
16505;HTU21D;8365;51.030;4.696;2022-11-02T13:39:51;19.92;54.52
16505;HTU21D;8365;51.030;4.696;2022-11-02T13:42:44;19.61;55.36
16505;HTU21D;8365;51.030;4.696;2022-11-02T13:45:29;19.67;56.57
16505;HTU21D;8365;51.030;4.696;2022-11-02T13:51:05;20.16;55.15
16505;HTU21D;8365;51.030;4.696;2022-11-02T13:53:39;20.94;54.48
16505;HTU21D;8365;51.030;4.696;2022-11-02T13:56:24;20.40;54.44
16505;HTU21D;8365;51.030;4.696;2022-11-02T13:59:05;20.42;54.07
16505;HTU21D;8365;51.030;4.696;2022-11-02T14:01:39;20.71;53.56
16505;HTU21D;8365;51.030;4.696;2022-11-02T14:04:12;21.43;50.89
16505;HTU21D;8365;51.030;4.696;2022-11-02T14:06:50;20.64;53.19
16505;HTU21D;8365;51.030;4.696;2022-11-02T14:09:26;20.89;51.79
16505;HTU21D;8365;51.030;4.696;2022-11-02T14:20:34;20.78;51.69
16505;HTU21D;8365;51.030;4.696;2022-11-02T14:33:52;21.06;49.21
16505;HTU21D;8365;51.030;4.696;2022-11-02T14:48:14;19.61;51.46
16505;HTU21D;8365;51.030;4.696;2022-11-02T14:50:58;18.89;54.33
16505;HTU21D;8365;51.030;4.696;2022-11-02T14:53:32;19.13;55.32
16505;HTU21D;8365;51.030;4.696;2022-11-02T14:56:04;19.53;55.08
16505;HTU21D;8365;51.030;4.696;2022-11-02T14:58:38;19.50;53.41
16505;HTU21D;8365;51.030;4.696;2022-11-02T15:01:12;19.56;54.13
16505;HTU21D;8365;51.030;4.696;2022-11-02T15:03:43;19.22;53.10
16505;HTU21D;8365;51.030;4.696;2022-11-02T15:08:54;19.24;53.97
16505;HTU21D;8365;51.030;4.696;2022-11-02T15:19:46;18.81;56.00
16505;HTU21D;8365;51.030;4.696;2022-11-02T15:27:40;17.89;59.46
16505;HTU21D;8365;51.030;4.696;2022-11-02T15:30:17;17.58;60.99
16505;HTU21D;8365;51.030;4.696;2022-11-02T15:32:53;17.11;62.25
16505;HTU21D;8365;51.030;4.696;2022-11-02T15:35:29;17.05;63.18
16505;HTU21D;8365;51.030;4.696;2022-11-02T15:38:02;17.07;62.89
16505;HTU21D;8365;51.030;4.696;2022-11-02T15:40:42;16.99;64.92
16505;HTU21D;8365;51.030;4.696;2022-11-02T15:51:57;16.84;65.81
16505;HTU21D;8365;51.030;4.696;2022-11-02T15:55:06;16.48;67.20
16505;HTU21D;8365;51.030;4.696;2022-11-02T15:57:51;16.49;67.10
16505;HTU21D;8365;51.030;4.696;2022-11-02T16:00:26;16.51;68.65
16505;HTU21D;8365;51.030;4.696;2022-11-02T16:03:07;16.40;68.06
16505;HTU21D;8365;51.030;4.696;2022-11-02T16:05:45;16.26;67.80
16505;HTU21D;8365;51.030;4.696;2022-11-02T16:08:32;16.22;69.42
16505;HTU21D;8365;51.030;4.696;2022-11-02T16:11:15;16.00;70.39
16505;HTU21D;8365;51.030;4.696;2022-11-02T16:13:46;15.87;71.77
16505;HTU21D;8365;51.030;4.696;2022-11-02T16:16:18;15.96;72.96
16505;HTU21D;8365;51.030;4.696;2022-11-02T16:18:51;15.73;73.52
16505;HTU21D;8365;51.030;4.696;2022-11-02T16:21:21;15.68;74.01
16505;HTU21D;8365;51.030;4.696;2022-11-02T16:23:57;15.62;73.23
16505;HTU21D;8365;51.030;4.696;2022-11-02T16:26:28;15.57;74.44
16505;HTU21D;8365;51.030;4.696;2022-11-02T16:28:59;15.48;74.79
16505;HTU21D;8365;51.030;4.696;2022-11-02T16:31:31;15.55;75.34
16505;HTU21D;8365;51.030;4.696;2022-11-02T16:34:13;15.56;76.01
16505;HTU21D;8365;51.030;4.696;2022-11-02T16:36:45;15.34;77.45
16505;HTU21D;8365;51.030;4.696;2022-11-02T16:39:32;15.24;77.13
16505;HTU21D;8365;51.030;4.696;2022-11-02T16:42:09;15.02;78.00
16505;HTU21D;8365;51.030;4.696;2022-11-02T16:44:53;14.93;80.23
16505;HTU21D;8365;51.030;4.696;2022-11-02T16:47:33;14.96;80.96
16505;HTU21D;8365;51.030;4.696;2022-11-02T16:50:18;14.89;82.33
16505;HTU21D;8365;51.030;4.696;2022-11-02T16:53:00;14.74;82.76
16505;HTU21D;8365;51.030;4.696;2022-11-02T16:55:42;14.50;83.50
16505;HTU21D;8365;51.030;4.696;2022-11-02T16:58:21;14.58;85.40
16505;HTU21D;8365;51.030;4.696;2022-11-02T17:01:03;14.50;84.77
16505;HTU21D;8365;51.030;4.696;2022-11-02T17:03:34;14.45;87.11
16505;HTU21D;8365;51.030;4.696;2022-11-02T17:06:05;14.40;86.74
16505;HTU21D;8365;51.030;4.696;2022-11-02T17:08:38;14.52;87.78
16505;HTU21D;8365;51.030;4.696;2022-11-02T17:11:16;14.33;87.72
16505;HTU21D;8365;51.030;4.696;2022-11-02T17:13:52;14.35;86.68
16505;HTU21D;8365;51.030;4.696;2022-11-02T17:16:24;14.52;86.22
16505;HTU21D;8365;51.030;4.696;2022-11-02T17:18:57;14.44;87.15
16505;HTU21D;8365;51.030;4.696;2022-11-02T17:21:31;14.33;87.44
16505;HTU21D;8365;51.030;4.696;2022-11-02T17:24:29;14.34;87.97
16505;HTU21D;8365;51.030;4.696;2022-11-02T17:27:23;14.47;87.92
16505;HTU21D;8365;51.030;4.696;2022-11-02T17:29:54;14.43;87.50
16505;HTU21D;8365;51.030;4.696;2022-11-02T17:32:25;14.55;87.99
16505;HTU21D;8365;51.030;4.696;2022-11-02T17:34:56;14.52;87.24
16505;HTU21D;8365;51.030;4.696;2022-11-02T17:37:29;14.62;86.64
16505;HTU21D;8365;51.030;4.696;2022-11-02T17:40:00;14.68;86.97
16505;HTU21D;8365;51.030;4.696;2022-11-02T17:42:31;14.58;86.16
16505;HTU21D;8365;51.030;4.696;2022-11-02T17:48:00;14.45;87.98
16505;HTU21D;8365;51.030;4.696;2022-11-02T17:50:32;14.44;87.06
16505;HTU21D;8365;51.030;4.696;2022-11-02T17:53:08;14.45;89.38
16505;HTU21D;8365;51.030;4.696;2022-11-02T17:55:40;14.43;88.15
16505;HTU21D;8365;51.030;4.696;2022-11-02T17:58:11;14.54;87.30
16505;HTU21D;8365;51.030;4.696;2022-11-02T18:00:43;14.62;88.64
16505;HTU21D;8365;51.030;4.696;2022-11-02T18:03:17;14.32;89.42
16505;HTU21D;8365;51.030;4.696;2022-11-02T18:05:49;14.27;89.78
16505;HTU21D;8365;51.030;4.696;2022-11-02T18:08:21;14.32;90.35
16505;HTU21D;8365;51.030;4.696;2022-11-02T18:10:52;14.29;90.79
16505;HTU21D;8365;51.030;4.696;2022-11-02T18:13:23;14.37;91.27
16505;HTU21D;8365;51.030;4.696;2022-11-02T18:15:53;14.37;91.02
16505;HTU21D;8365;51.030;4.696;2022-11-02T18:18:24;14.49;90.27
16505;HTU21D;8365;51.030;4.696;2022-11-02T18:20:54;14.47;90.41
16505;HTU21D;8365;51.030;4.696;2022-11-02T18:23:25;14.32;91.27
16505;HTU21D;8365;51.030;4.696;2022-11-02T18:25:56;14.33;91.07
16505;HTU21D;8365;51.030;4.696;2022-11-02T18:28:27;14.33;91.06
16505;HTU21D;8365;51.030;4.696;2022-11-02T18:30:57;14.22;91.95
16505;HTU21D;8365;51.030;4.696;2022-11-02T18:33:28;14.13;92.68
16505;HTU21D;8365;51.030;4.696;2022-11-02T18:36:06;14.18;93.03
16505;HTU21D;8365;51.030;4.696;2022-11-02T18:38:37;13.96;94.04
16505;HTU21D;8365;51.030;4.696;2022-11-02T18:41:09;13.84;95.26
16505;HTU21D;8365;51.030;4.696;2022-11-02T18:44:01;13.65;97.39
16505;HTU21D;8365;51.030;4.696;2022-11-02T18:46:34;13.83;95.20
16505;HTU21D;8365;51.030;4.696;2022-11-02T18:49:05;13.77;96.71
16505;HTU21D;8365;51.030;4.696;2022-11-02T18:51:36;13.73;97.06
16505;HTU21D;8365;51.030;4.696;2022-11-02T18:54:06;13.73;97.87
16505;HTU21D;8365;51.030;4.696;2022-11-02T18:56:38;13.64;98.04
16505;HTU21D;8365;51.030;4.696;2022-11-02T18:59:09;13.58;98.62
16505;HTU21D;8365;51.030;4.696;2022-11-02T19:01:42;13.66;99.16
16505;HTU21D;8365;51.030;4.696;2022-11-02T19:04:12;13.81;97.59
16505;HTU21D;8365;51.030;4.696;2022-11-02T19:06:43;13.65;99.27
16505;HTU21D;8365;51.030;4.696;2022-11-02T19:09:32;13.60;99.88
16505;HTU21D;8365;51.030;4.696;2022-11-02T19:12:05;13.41;100.46
16505;HTU21D;8365;51.030;4.696;2022-11-02T19:14:41;13.50;100.38
16505;HTU21D;8365;51.030;4.696;2022-11-02T19:17:13;13.53;101.36
16505;HTU21D;8365;51.030;4.696;2022-11-02T19:19:44;13.46;101.79
16505;HTU21D;8365;51.030;4.696;2022-11-02T19:22:21;13.50;102.21
16505;HTU21D;8365;51.030;4.696;2022-11-02T19:24:51;13.45;102.97
16505;HTU21D;8365;51.030;4.696;2022-11-02T19:27:23;13.44;103.61
16505;HTU21D;8365;51.030;4.696;2022-11-02T19:29:54;13.35;104.42
16505;HTU21D;8365;51.030;4.696;2022-11-02T19:32:24;13.44;103.81
16505;HTU21D;8365;51.030;4.696;2022-11-02T19:34:57;13.31;104.89
16505;HTU21D;8365;51.030;4.696;2022-11-02T19:37:30;13.30;106.07
16505;HTU21D;8365;51.030;4.696;2022-11-02T19:40:01;13.29;105.56
16505;HTU21D;8365;51.030;4.696;2022-11-02T19:42:31;13.35;105.41
16505;HTU21D;8365;51.030;4.696;2022-11-02T19:45:02;13.29;107.14
16505;HTU21D;8365;51.030;4.696;2022-11-02T19:47:33;13.25;106.92
16505;HTU21D;8365;51.030;4.696;2022-11-02T19:50:03;13.34;107.24
16505;HTU21D;8365;51.030;4.696;2022-11-02T19:52:34;13.33;106.44
16505;HTU21D;8365;51.030;4.696;2022-11-02T19:55:05;13.32;107.53
16505;HTU21D;8365;51.030;4.696;2022-11-02T19:57:35;13.38;107.35
16505;HTU21D;8365;51.030;4.696;2022-11-02T20:00:06;13.34;107.60
16505;HTU21D;8365;51.030;4.696;2022-11-02T20:02:38;13.26;108.24
16505;HTU21D;8365;51.030;4.696;2022-11-02T20:05:08;13.32;107.86
16505;HTU21D;8365;51.030;4.696;2022-11-02T20:07:40;13.31;107.83
16505;HTU21D;8365;51.030;4.696;2022-11-02T20:10:10;13.14;107.89
16505;HTU21D;8365;51.030;4.696;2022-11-02T20:12:43;13.36;108.75
16505;HTU21D;8365;51.030;4.696;2022-11-02T20:15:13;13.22;108.49
16505;HTU21D;8365;51.030;4.696;2022-11-02T20:17:44;13.30;108.87
16505;HTU21D;8365;51.030;4.696;2022-11-02T20:20:14;13.34;110.55
16505;HTU21D;8365;51.030;4.696;2022-11-02T20:22:45;13.16;110.15
16505;HTU21D;8365;51.030;4.696;2022-11-02T20:25:16;13.18;109.16
16505;HTU21D;8365;51.030;4.696;2022-11-02T20:27:47;13.18;109.25
16505;HTU21D;8365;51.030;4.696;2022-11-02T20:30:20;13.29;109.48
16505;HTU21D;8365;51.030;4.696;2022-11-02T20:32:51;13.20;109.30
16505;HTU21D;8365;51.030;4.696;2022-11-02T20:35:21;13.16;108.67
16505;HTU21D;8365;51.030;4.696;2022-11-02T20:37:54;13.21;108.52
16505;HTU21D;8365;51.030;4.696;2022-11-02T20:40:25;13.21;109.40
16505;HTU21D;8365;51.030;4.696;2022-11-02T20:42:57;13.31;108.35
16505;HTU21D;8365;51.030;4.696;2022-11-02T20:45:28;13.17;109.72
16505;HTU21D;8365;51.030;4.696;2022-11-02T20:48:02;13.21;108.56